sensor_id;sensor_type;location;lat;lon;timestamp;P1;durP1;ratioP1;P2;durP2;ratioP2
53714;SDS011;39608;55.630;37.864;2023-02-01T00:02:59;21.00;;;11.35;;
53714;SDS011;39608;55.630;37.864;2023-02-01T00:08:01;16.55;;;9.40;;
53714;SDS011;39608;55.630;37.864;2023-02-01T00:13:05;21.35;;;10.35;;
53714;SDS011;39608;55.630;37.864;2023-02-01T00:18:07;20.30;;;11.00;;
53714;SDS011;39608;55.630;37.864;2023-02-01T00:23:08;17.75;;;9.77;;
53714;SDS011;39608;55.630;37.864;2023-02-01T00:28:12;18.75;;;10.23;;
53714;SDS011;39608;55.630;37.864;2023-02-01T00:33:14;19.02;;;9.73;;
53714;SDS011;39608;55.630;37.864;2023-02-01T00:38:16;18.42;;;10.50;;
53714;SDS011;39608;55.630;37.864;2023-02-01T00:43:19;16.60;;;10.32;;
53714;SDS011;39608;55.630;37.864;2023-02-01T00:48:21;15.77;;;9.93;;
53714;SDS011;39608;55.630;37.864;2023-02-01T00:53:26;19.80;;;10.70;;
53714;SDS011;39608;55.630;37.864;2023-02-01T00:58:29;19.95;;;10.90;;
53714;SDS011;39608;55.630;37.864;2023-02-01T01:03:32;25.20;;;13.40;;
53714;SDS011;39608;55.630;37.864;2023-02-01T01:08:35;24.17;;;13.73;;
53714;SDS011;39608;55.630;37.864;2023-02-01T01:13:39;22.63;;;12.27;;
53714;SDS011;39608;55.630;37.864;2023-02-01T01:18:42;19.35;;;9.77;;
53714;SDS011;39608;55.630;37.864;2023-02-01T01:23:45;21.75;;;11.23;;
53714;SDS011;39608;55.630;37.864;2023-02-01T01:28:49;19.48;;;10.55;;
53714;SDS011;39608;55.630;37.864;2023-02-01T01:33:52;23.42;;;11.07;;
53714;SDS011;39608;55.630;37.864;2023-02-01T01:38:55;17.60;;;11.05;;
53714;SDS011;39608;55.630;37.864;2023-02-01T01:44:00;20.35;;;10.43;;
53714;SDS011;39608;55.630;37.864;2023-02-01T01:49:05;21.17;;;11.38;;
53714;SDS011;39608;55.630;37.864;2023-02-01T01:54:12;19.90;;;10.13;;
53714;SDS011;39608;55.630;37.864;2023-02-01T01:59:19;24.10;;;11.38;;
53714;SDS011;39608;55.630;37.864;2023-02-01T02:04:23;20.83;;;10.85;;
53714;SDS011;39608;55.630;37.864;2023-02-01T02:09:26;21.15;;;10.18;;
53714;SDS011;39608;55.630;37.864;2023-02-01T02:14:29;21.13;;;10.75;;
53714;SDS011;39608;55.630;37.864;2023-02-01T02:31:44;22.77;;;11.38;;
53714;SDS011;39608;55.630;37.864;2023-02-01T02:37:09;23.00;;;11.15;;
53714;SDS011;39608;55.630;37.864;2023-02-01T02:42:21;21.13;;;10.77;;
53714;SDS011;39608;55.630;37.864;2023-02-01T02:47:50;21.15;;;11.88;;
53714;SDS011;39608;55.630;37.864;2023-02-01T02:52:58;20.58;;;11.50;;
53714;SDS011;39608;55.630;37.864;2023-02-01T02:58:22;23.15;;;12.35;;
53714;SDS011;39608;55.630;37.864;2023-02-01T03:03:41;20.60;;;11.57;;
53714;SDS011;39608;55.630;37.864;2023-02-01T03:09:11;21.20;;;10.53;;
53714;SDS011;39608;55.630;37.864;2023-02-01T03:14:18;24.75;;;12.30;;
53714;SDS011;39608;55.630;37.864;2023-02-01T03:19:24;22.60;;;11.82;;
53714;SDS011;39608;55.630;37.864;2023-02-01T03:24:32;22.52;;;11.70;;
53714;SDS011;39608;55.630;37.864;2023-02-01T03:29:40;23.05;;;12.38;;
53714;SDS011;39608;55.630;37.864;2023-02-01T03:34:47;26.73;;;12.45;;
53714;SDS011;39608;55.630;37.864;2023-02-01T03:39:52;23.63;;;12.02;;
53714;SDS011;39608;55.630;37.864;2023-02-01T03:45:00;24.67;;;12.13;;
53714;SDS011;39608;55.630;37.864;2023-02-01T03:50:07;22.23;;;12.82;;
53714;SDS011;39608;55.630;37.864;2023-02-01T03:55:15;29.10;;;12.45;;
53714;SDS011;39608;55.630;37.864;2023-02-01T04:00:21;25.08;;;12.30;;
53714;SDS011;39608;55.630;37.864;2023-02-01T04:05:24;25.77;;;13.10;;
53714;SDS011;39608;55.630;37.864;2023-02-01T04:10:28;24.35;;;12.40;;
53714;SDS011;39608;55.630;37.864;2023-02-01T04:15:30;23.77;;;12.40;;
53714;SDS011;39608;55.630;37.864;2023-02-01T04:20:32;22.95;;;12.35;;
53714;SDS011;39608;55.630;37.864;2023-02-01T04:25:36;23.52;;;12.73;;
53714;SDS011;39608;55.630;37.864;2023-02-01T04:30:38;25.10;;;12.55;;
53714;SDS011;39608;55.630;37.864;2023-02-01T04:35:40;30.13;;;13.23;;
53714;SDS011;39608;55.630;37.864;2023-02-01T04:40:46;24.83;;;12.60;;
53714;SDS011;39608;55.630;37.864;2023-02-01T04:45:48;28.33;;;13.70;;
53714;SDS011;39608;55.630;37.864;2023-02-01T04:50:51;25.02;;;12.68;;
53714;SDS011;39608;55.630;37.864;2023-02-01T04:55:54;23.55;;;12.75;;
53714;SDS011;39608;55.630;37.864;2023-02-01T05:00:57;31.45;;;13.90;;
53714;SDS011;39608;55.630;37.864;2023-02-01T05:05:59;28.70;;;13.88;;
53714;SDS011;39608;55.630;37.864;2023-02-01T05:11:03;25.10;;;11.95;;
53714;SDS011;39608;55.630;37.864;2023-02-01T05:16:05;23.58;;;13.90;;
53714;SDS011;39608;55.630;37.864;2023-02-01T05:21:08;25.65;;;14.18;;
53714;SDS011;39608;55.630;37.864;2023-02-01T05:26:11;26.27;;;13.50;;
53714;SDS011;39608;55.630;37.864;2023-02-01T05:31:13;28.52;;;14.85;;
53714;SDS011;39608;55.630;37.864;2023-02-01T05:36:15;27.75;;;13.95;;
53714;SDS011;39608;55.630;37.864;2023-02-01T05:41:19;26.10;;;13.40;;
53714;SDS011;39608;55.630;37.864;2023-02-01T05:46:21;23.55;;;13.50;;
53714;SDS011;39608;55.630;37.864;2023-02-01T05:51:22;24.30;;;12.77;;
53714;SDS011;39608;55.630;37.864;2023-02-01T05:56:26;25.15;;;14.25;;
53714;SDS011;39608;55.630;37.864;2023-02-01T06:01:28;32.92;;;15.52;;
53714;SDS011;39608;55.630;37.864;2023-02-01T06:06:30;28.27;;;14.35;;
53714;SDS011;39608;55.630;37.864;2023-02-01T06:11:33;23.55;;;12.90;;
53714;SDS011;39608;55.630;37.864;2023-02-01T06:16:35;26.92;;;13.27;;
53714;SDS011;39608;55.630;37.864;2023-02-01T06:21:37;27.80;;;14.00;;
53714;SDS011;39608;55.630;37.864;2023-02-01T06:26:41;28.80;;;13.75;;
53714;SDS011;39608;55.630;37.864;2023-02-01T06:31:43;26.08;;;13.57;;
53714;SDS011;39608;55.630;37.864;2023-02-01T06:36:45;27.92;;;13.80;;
53714;SDS011;39608;55.630;37.864;2023-02-01T06:41:48;26.35;;;13.32;;
53714;SDS011;39608;55.630;37.864;2023-02-01T06:46:50;29.25;;;13.60;;
53714;SDS011;39608;55.630;37.864;2023-02-01T06:51:52;29.38;;;16.33;;
53714;SDS011;39608;55.630;37.864;2023-02-01T06:56:55;28.67;;;15.57;;
53714;SDS011;39608;55.630;37.864;2023-02-01T07:01:58;30.75;;;15.68;;
53714;SDS011;39608;55.630;37.864;2023-02-01T07:07:01;31.27;;;16.42;;
53714;SDS011;39608;55.630;37.864;2023-02-01T07:12:05;26.45;;;14.88;;
53714;SDS011;39608;55.630;37.864;2023-02-01T07:17:07;24.00;;;14.05;;
53714;SDS011;39608;55.630;37.864;2023-02-01T07:22:09;25.35;;;13.85;;
53714;SDS011;39608;55.630;37.864;2023-02-01T07:27:12;24.58;;;12.75;;
53714;SDS011;39608;55.630;37.864;2023-02-01T07:32:14;26.90;;;13.52;;
53714;SDS011;39608;55.630;37.864;2023-02-01T07:37:18;29.83;;;12.80;;
53714;SDS011;39608;55.630;37.864;2023-02-01T07:42:21;23.08;;;12.00;;
53714;SDS011;39608;55.630;37.864;2023-02-01T07:47:23;22.00;;;12.55;;
53714;SDS011;39608;55.630;37.864;2023-02-01T07:52:27;22.42;;;11.75;;
53714;SDS011;39608;55.630;37.864;2023-02-01T07:57:31;22.70;;;11.80;;
53714;SDS011;39608;55.630;37.864;2023-02-01T08:02:33;23.40;;;11.82;;
53714;SDS011;39608;55.630;37.864;2023-02-01T08:07:35;20.50;;;11.50;;
53714;SDS011;39608;55.630;37.864;2023-02-01T08:12:38;23.63;;;12.55;;
53714;SDS011;39608;55.630;37.864;2023-02-01T08:17:45;22.67;;;12.10;;
53714;SDS011;39608;55.630;37.864;2023-02-01T08:22:48;26.42;;;13.05;;
53714;SDS011;39608;55.630;37.864;2023-02-01T08:27:52;22.92;;;13.48;;
53714;SDS011;39608;55.630;37.864;2023-02-01T08:32:54;22.83;;;12.95;;
53714;SDS011;39608;55.630;37.864;2023-02-01T08:37:56;24.45;;;13.32;;
53714;SDS011;39608;55.630;37.864;2023-02-01T08:43:00;20.77;;;12.10;;
53714;SDS011;39608;55.630;37.864;2023-02-01T08:48:02;19.73;;;11.70;;
53714;SDS011;39608;55.630;37.864;2023-02-01T08:53:04;22.38;;;14.40;;
53714;SDS011;39608;55.630;37.864;2023-02-01T08:58:07;24.95;;;12.95;;
53714;SDS011;39608;55.630;37.864;2023-02-01T09:03:09;25.90;;;14.30;;
53714;SDS011;39608;55.630;37.864;2023-02-01T09:08:12;31.42;;;16.17;;
53714;SDS011;39608;55.630;37.864;2023-02-01T09:13:16;28.58;;;14.55;;
53714;SDS011;39608;55.630;37.864;2023-02-01T09:18:18;26.95;;;14.48;;
53714;SDS011;39608;55.630;37.864;2023-02-01T09:23:20;29.52;;;14.95;;
53714;SDS011;39608;55.630;37.864;2023-02-01T09:28:24;24.02;;;13.40;;
53714;SDS011;39608;55.630;37.864;2023-02-01T09:33:27;23.30;;;13.55;;
53714;SDS011;39608;55.630;37.864;2023-02-01T09:38:30;25.27;;;14.48;;
53714;SDS011;39608;55.630;37.864;2023-02-01T09:43:37;27.15;;;14.52;;
53714;SDS011;39608;55.630;37.864;2023-02-01T09:48:44;22.73;;;13.25;;
53714;SDS011;39608;55.630;37.864;2023-02-01T09:53:58;24.35;;;13.23;;
53714;SDS011;39608;55.630;37.864;2023-02-01T09:59:08;27.23;;;15.43;;
53714;SDS011;39608;55.630;37.864;2023-02-01T10:04:18;24.35;;;12.77;;
53714;SDS011;39608;55.630;37.864;2023-02-01T10:09:24;24.58;;;13.48;;
53714;SDS011;39608;55.630;37.864;2023-02-01T10:14:51;23.05;;;13.90;;
53714;SDS011;39608;55.630;37.864;2023-02-01T10:20:03;22.77;;;13.40;;
53714;SDS011;39608;55.630;37.864;2023-02-01T10:25:13;23.70;;;12.38;;
53714;SDS011;39608;55.630;37.864;2023-02-01T10:30:25;20.88;;;12.57;;
53714;SDS011;39608;55.630;37.864;2023-02-01T10:35:31;23.48;;;13.57;;
53714;SDS011;39608;55.630;37.864;2023-02-01T10:40:41;25.33;;;13.93;;
53714;SDS011;39608;55.630;37.864;2023-02-01T10:45:45;29.00;;;14.50;;
53714;SDS011;39608;55.630;37.864;2023-02-01T10:50:49;23.27;;;13.98;;
53714;SDS011;39608;55.630;37.864;2023-02-01T10:55:55;29.33;;;14.85;;
53714;SDS011;39608;55.630;37.864;2023-02-01T11:00:59;22.60;;;13.18;;
53714;SDS011;39608;55.630;37.864;2023-02-01T11:06:08;26.67;;;16.20;;
53714;SDS011;39608;55.630;37.864;2023-02-01T11:11:24;23.15;;;13.95;;
53714;SDS011;39608;55.630;37.864;2023-02-01T11:16:33;27.33;;;15.02;;
53714;SDS011;39608;55.630;37.864;2023-02-01T11:21:36;27.85;;;14.25;;
53714;SDS011;39608;55.630;37.864;2023-02-01T11:26:38;30.58;;;13.80;;
53714;SDS011;39608;55.630;37.864;2023-02-01T11:31:43;32.45;;;15.57;;
53714;SDS011;39608;55.630;37.864;2023-02-01T11:36:47;23.63;;;12.68;;
53714;SDS011;39608;55.630;37.864;2023-02-01T11:41:55;26.40;;;14.10;;
53714;SDS011;39608;55.630;37.864;2023-02-01T11:47:19;29.52;;;15.80;;
53714;SDS011;39608;55.630;37.864;2023-02-01T11:52:34;22.48;;;13.52;;
53714;SDS011;39608;55.630;37.864;2023-02-01T11:57:48;24.27;;;13.68;;
53714;SDS011;39608;55.630;37.864;2023-02-01T12:03:11;21.43;;;11.53;;
53714;SDS011;39608;55.630;37.864;2023-02-01T12:08:32;21.83;;;11.73;;
53714;SDS011;39608;55.630;37.864;2023-02-01T12:13:53;24.73;;;11.07;;
53714;SDS011;39608;55.630;37.864;2023-02-01T12:19:13;18.73;;;9.98;;
53714;SDS011;39608;55.630;37.864;2023-02-01T12:24:46;18.30;;;10.45;;
53714;SDS011;39608;55.630;37.864;2023-02-01T12:30:13;17.58;;;9.65;;
53714;SDS011;39608;55.630;37.864;2023-02-01T12:35:34;18.67;;;10.55;;
53714;SDS011;39608;55.630;37.864;2023-02-01T12:40:49;19.25;;;11.52;;
53714;SDS011;39608;55.630;37.864;2023-02-01T12:46:04;21.70;;;10.80;;
53714;SDS011;39608;55.630;37.864;2023-02-01T12:51:15;24.00;;;12.02;;
53714;SDS011;39608;55.630;37.864;2023-02-01T12:56:21;20.52;;;12.35;;
53714;SDS011;39608;55.630;37.864;2023-02-01T13:01:28;24.08;;;12.93;;
53714;SDS011;39608;55.630;37.864;2023-02-01T13:06:37;22.90;;;11.55;;
53714;SDS011;39608;55.630;37.864;2023-02-01T13:11:44;23.67;;;11.63;;
53714;SDS011;39608;55.630;37.864;2023-02-01T13:16:49;22.52;;;11.55;;
53714;SDS011;39608;55.630;37.864;2023-02-01T13:21:57;23.75;;;10.65;;
53714;SDS011;39608;55.630;37.864;2023-02-01T13:27:09;22.55;;;11.77;;
53714;SDS011;39608;55.630;37.864;2023-02-01T13:43:30;17.65;;;10.38;;
53714;SDS011;39608;55.630;37.864;2023-02-01T13:48:38;20.48;;;10.65;;
53714;SDS011;39608;55.630;37.864;2023-02-01T13:53:48;18.70;;;10.30;;
53714;SDS011;39608;55.630;37.864;2023-02-01T13:58:50;24.38;;;11.95;;
53714;SDS011;39608;55.630;37.864;2023-02-01T14:03:53;19.02;;;11.18;;
53714;SDS011;39608;55.630;37.864;2023-02-01T14:09:12;28.17;;;12.27;;
53714;SDS011;39608;55.630;37.864;2023-02-01T14:19:46;20.58;;;11.30;;
53714;SDS011;39608;55.630;37.864;2023-02-01T14:24:50;24.23;;;11.60;;
53714;SDS011;39608;55.630;37.864;2023-02-01T14:29:55;32.03;;;11.57;;
53714;SDS011;39608;55.630;37.864;2023-02-01T14:35:00;24.60;;;10.77;;
53714;SDS011;39608;55.630;37.864;2023-02-01T14:40:06;23.98;;;10.80;;
53714;SDS011;39608;55.630;37.864;2023-02-01T14:50:50;23.70;;;10.70;;
53714;SDS011;39608;55.630;37.864;2023-02-01T14:55:55;23.63;;;12.25;;
53714;SDS011;39608;55.630;37.864;2023-02-01T15:01:04;24.23;;;13.00;;
53714;SDS011;39608;55.630;37.864;2023-02-01T15:06:26;23.17;;;12.00;;
53714;SDS011;39608;55.630;37.864;2023-02-01T15:11:34;27.10;;;13.48;;
53714;SDS011;39608;55.630;37.864;2023-02-01T15:16:55;31.85;;;14.30;;
53714;SDS011;39608;55.630;37.864;2023-02-01T15:21:58;36.65;;;13.90;;
53714;SDS011;39608;55.630;37.864;2023-02-01T15:27:05;31.83;;;12.75;;
53714;SDS011;39608;55.630;37.864;2023-02-01T15:32:14;30.08;;;13.20;;
53714;SDS011;39608;55.630;37.864;2023-02-01T15:37:30;25.73;;;11.93;;
53714;SDS011;39608;55.630;37.864;2023-02-01T15:42:34;33.30;;;13.52;;
53714;SDS011;39608;55.630;37.864;2023-02-01T15:47:36;26.90;;;11.40;;
53714;SDS011;39608;55.630;37.864;2023-02-01T15:52:41;31.13;;;13.82;;
53714;SDS011;39608;55.630;37.864;2023-02-01T15:57:45;26.50;;;13.40;;
53714;SDS011;39608;55.630;37.864;2023-02-01T16:02:51;34.53;;;14.52;;
53714;SDS011;39608;55.630;37.864;2023-02-01T16:07:55;27.90;;;14.02;;
53714;SDS011;39608;55.630;37.864;2023-02-01T16:13:05;30.73;;;15.43;;
53714;SDS011;39608;55.630;37.864;2023-02-01T16:18:07;28.13;;;13.57;;
53714;SDS011;39608;55.630;37.864;2023-02-01T16:23:10;29.45;;;14.20;;
53714;SDS011;39608;55.630;37.864;2023-02-01T16:28:13;26.27;;;14.15;;
53714;SDS011;39608;55.630;37.864;2023-02-01T16:33:16;32.05;;;15.02;;
53714;SDS011;39608;55.630;37.864;2023-02-01T16:38:22;25.48;;;13.52;;
53714;SDS011;39608;55.630;37.864;2023-02-01T16:43:27;29.00;;;14.90;;
53714;SDS011;39608;55.630;37.864;2023-02-01T16:48:31;32.53;;;14.85;;
53714;SDS011;39608;55.630;37.864;2023-02-01T16:53:35;26.90;;;13.30;;
53714;SDS011;39608;55.630;37.864;2023-02-01T16:58:41;30.83;;;13.90;;
53714;SDS011;39608;55.630;37.864;2023-02-01T17:03:44;25.35;;;13.98;;
53714;SDS011;39608;55.630;37.864;2023-02-01T17:08:47;28.98;;;14.15;;
53714;SDS011;39608;55.630;37.864;2023-02-01T17:13:54;27.67;;;15.00;;
53714;SDS011;39608;55.630;37.864;2023-02-01T17:18:58;26.67;;;13.32;;
53714;SDS011;39608;55.630;37.864;2023-02-01T17:24:03;28.08;;;15.27;;
53714;SDS011;39608;55.630;37.864;2023-02-01T17:29:06;25.48;;;13.15;;
53714;SDS011;39608;55.630;37.864;2023-02-01T17:34:09;30.25;;;14.25;;
53714;SDS011;39608;55.630;37.864;2023-02-01T17:39:13;26.05;;;13.80;;
53714;SDS011;39608;55.630;37.864;2023-02-01T17:44:32;31.48;;;13.05;;
53714;SDS011;39608;55.630;37.864;2023-02-01T17:49:35;25.70;;;13.45;;
53714;SDS011;39608;55.630;37.864;2023-02-01T17:54:38;20.75;;;12.35;;
53714;SDS011;39608;55.630;37.864;2023-02-01T17:59:42;22.40;;;11.82;;
53714;SDS011;39608;55.630;37.864;2023-02-01T18:04:44;26.60;;;13.63;;
53714;SDS011;39608;55.630;37.864;2023-02-01T18:09:46;23.05;;;11.73;;
53714;SDS011;39608;55.630;37.864;2023-02-01T18:14:50;22.88;;;13.13;;
53714;SDS011;39608;55.630;37.864;2023-02-01T18:19:52;19.23;;;11.60;;
53714;SDS011;39608;55.630;37.864;2023-02-01T18:24:54;22.58;;;12.82;;
53714;SDS011;39608;55.630;37.864;2023-02-01T18:29:58;24.48;;;12.15;;
53714;SDS011;39608;55.630;37.864;2023-02-01T18:35:00;22.45;;;11.35;;
53714;SDS011;39608;55.630;37.864;2023-02-01T18:40:04;21.58;;;12.18;;
53714;SDS011;39608;55.630;37.864;2023-02-01T18:45:23;18.98;;;10.45;;
53714;SDS011;39608;55.630;37.864;2023-02-01T18:50:30;18.67;;;10.75;;
53714;SDS011;39608;55.630;37.864;2023-02-01T18:55:36;16.38;;;10.27;;
53714;SDS011;39608;55.630;37.864;2023-02-01T19:00:42;19.10;;;10.80;;
53714;SDS011;39608;55.630;37.864;2023-02-01T19:05:46;20.20;;;10.82;;
53714;SDS011;39608;55.630;37.864;2023-02-01T19:10:48;21.52;;;11.75;;
53714;SDS011;39608;55.630;37.864;2023-02-01T19:15:52;19.67;;;11.50;;
53714;SDS011;39608;55.630;37.864;2023-02-01T19:20:55;17.92;;;12.15;;
53714;SDS011;39608;55.630;37.864;2023-02-01T19:26:08;27.08;;;13.27;;
53714;SDS011;39608;55.630;37.864;2023-02-01T19:31:13;22.52;;;13.07;;
53714;SDS011;39608;55.630;37.864;2023-02-01T19:36:17;21.42;;;12.32;;
53714;SDS011;39608;55.630;37.864;2023-02-01T19:41:19;23.70;;;13.23;;
53714;SDS011;39608;55.630;37.864;2023-02-01T19:46:23;23.58;;;13.25;;
53714;SDS011;39608;55.630;37.864;2023-02-01T19:51:25;21.55;;;12.32;;
53714;SDS011;39608;55.630;37.864;2023-02-01T19:56:27;22.65;;;14.00;;
53714;SDS011;39608;55.630;37.864;2023-02-01T20:01:31;25.98;;;13.27;;
53714;SDS011;39608;55.630;37.864;2023-02-01T20:06:36;20.30;;;12.63;;
53714;SDS011;39608;55.630;37.864;2023-02-01T20:11:40;22.00;;;12.03;;
53714;SDS011;39608;55.630;37.864;2023-02-01T20:16:46;22.55;;;12.80;;
53714;SDS011;39608;55.630;37.864;2023-02-01T20:21:49;22.88;;;12.75;;
53714;SDS011;39608;55.630;37.864;2023-02-01T20:26:55;21.27;;;13.05;;
53714;SDS011;39608;55.630;37.864;2023-02-01T20:32:04;23.00;;;12.75;;
53714;SDS011;39608;55.630;37.864;2023-02-01T20:37:09;27.80;;;13.93;;
53714;SDS011;39608;55.630;37.864;2023-02-01T20:42:11;21.20;;;11.95;;
53714;SDS011;39608;55.630;37.864;2023-02-01T20:47:15;25.77;;;13.70;;
53714;SDS011;39608;55.630;37.864;2023-02-01T20:52:17;22.25;;;12.40;;
53714;SDS011;39608;55.630;37.864;2023-02-01T20:57:19;25.33;;;13.23;;
53714;SDS011;39608;55.630;37.864;2023-02-01T21:02:24;28.10;;;14.80;;
53714;SDS011;39608;55.630;37.864;2023-02-01T21:07:26;21.58;;;12.70;;
53714;SDS011;39608;55.630;37.864;2023-02-01T21:12:28;27.85;;;14.38;;
53714;SDS011;39608;55.630;37.864;2023-02-01T21:17:31;24.23;;;13.50;;
53714;SDS011;39608;55.630;37.864;2023-02-01T21:22:33;23.77;;;13.27;;
53714;SDS011;39608;55.630;37.864;2023-02-01T21:27:35;26.20;;;13.85;;
53714;SDS011;39608;55.630;37.864;2023-02-01T21:32:39;24.13;;;13.85;;
53714;SDS011;39608;55.630;37.864;2023-02-01T21:37:42;23.55;;;14.20;;
53714;SDS011;39608;55.630;37.864;2023-02-01T21:42:44;21.48;;;12.90;;
53714;SDS011;39608;55.630;37.864;2023-02-01T21:47:47;25.20;;;13.27;;
53714;SDS011;39608;55.630;37.864;2023-02-01T21:52:49;25.30;;;13.18;;
53714;SDS011;39608;55.630;37.864;2023-02-01T21:57:51;25.77;;;14.02;;
53714;SDS011;39608;55.630;37.864;2023-02-01T22:02:55;26.55;;;14.00;;
53714;SDS011;39608;55.630;37.864;2023-02-01T22:07:57;28.17;;;14.00;;
53714;SDS011;39608;55.630;37.864;2023-02-01T22:12:59;22.20;;;14.10;;
53714;SDS011;39608;55.630;37.864;2023-02-01T22:18:02;27.05;;;13.13;;
53714;SDS011;39608;55.630;37.864;2023-02-01T22:23:04;23.25;;;14.30;;
53714;SDS011;39608;55.630;37.864;2023-02-01T22:28:06;23.38;;;13.85;;
53714;SDS011;39608;55.630;37.864;2023-02-01T22:33:10;25.63;;;13.60;;
53714;SDS011;39608;55.630;37.864;2023-02-01T22:38:12;25.90;;;13.73;;
53714;SDS011;39608;55.630;37.864;2023-02-01T22:43:14;28.58;;;13.73;;
53714;SDS011;39608;55.630;37.864;2023-02-01T22:48:17;19.58;;;11.75;;
53714;SDS011;39608;55.630;37.864;2023-02-01T22:53:19;27.05;;;13.40;;
53714;SDS011;39608;55.630;37.864;2023-02-01T22:58:21;21.20;;;12.20;;
53714;SDS011;39608;55.630;37.864;2023-02-01T23:03:25;24.55;;;13.57;;
53714;SDS011;39608;55.630;37.864;2023-02-01T23:08:27;26.17;;;13.98;;
53714;SDS011;39608;55.630;37.864;2023-02-01T23:13:30;27.17;;;14.15;;
53714;SDS011;39608;55.630;37.864;2023-02-01T23:18:33;25.77;;;13.60;;
53714;SDS011;39608;55.630;37.864;2023-02-01T23:23:35;26.17;;;13.32;;
53714;SDS011;39608;55.630;37.864;2023-02-01T23:28:38;25.45;;;14.18;;
53714;SDS011;39608;55.630;37.864;2023-02-01T23:33:42;23.98;;;13.93;;
53714;SDS011;39608;55.630;37.864;2023-02-01T23:38:45;26.85;;;13.20;;
53714;SDS011;39608;55.630;37.864;2023-02-01T23:43:48;27.48;;;13.70;;
53714;SDS011;39608;55.630;37.864;2023-02-01T23:49:01;24.30;;;13.18;;
53714;SDS011;39608;55.630;37.864;2023-02-01T23:54:05;23.95;;;14.15;;
53714;SDS011;39608;55.630;37.864;2023-02-01T23:59:10;29.35;;;13.98;;
